createdAt,value
2022-07-28T00:02:16.587Z,78.71
2022-07-28T00:04:48.795Z,78.83
2022-07-28T00:07:40.813Z,78.88
2022-07-28T00:10:35.405Z,78.84
2022-07-28T00:13:27.705Z,78.62
2022-07-28T00:16:20.122Z,78.76
2022-07-28T00:19:12.491Z,78.79
2022-07-28T00:22:06.418Z,78.68
2022-07-28T00:24:38.872Z,78.59
2022-07-28T00:27:31.142Z,78.83
2022-07-28T00:30:23.277Z,78.99
2022-07-28T00:33:15.515Z,78.96
2022-07-28T00:36:10.357Z,79.04
2022-07-28T00:39:03.969Z,79.19
2022-07-28T00:41:56.001Z,79.40
2022-07-28T00:44:48.418Z,79.45
2022-07-28T00:47:40.458Z,79.36
2022-07-28T00:50:32.619Z,79.63
2022-07-28T00:53:25.562Z,79.33
2022-07-28T00:56:17.689Z,79.05
2022-07-28T00:59:10.759Z,78.87
2022-07-28T01:02:03.405Z,78.93
2022-07-28T01:04:55.491Z,78.85
2022-07-28T01:07:56.528Z,78.75
2022-07-28T01:11:02.292Z,78.57
2022-07-28T01:14:00.695Z,78.60
2022-07-28T01:16:58.243Z,78.62
2022-07-28T01:19:55.887Z,78.50
2022-07-28T01:23:06.932Z,78.69
2022-07-28T01:26:13.920Z,79.16
2022-07-28T01:29:20.075Z,79.43
2022-07-28T01:32:17.495Z,79.47
2022-07-28T01:35:14.095Z,79.42
2022-07-28T01:37:53.021Z,79.43
2022-07-28T01:40:48.564Z,79.24
2022-07-28T01:43:49.307Z,79.22
2022-07-28T01:46:42.923Z,79.51
2022-07-28T01:49:36.147Z,79.48
2022-07-28T01:52:30.192Z,79.35
2022-07-28T01:55:24.806Z,79.54
2022-07-28T01:58:18.299Z,79.65
2022-07-28T02:01:13.218Z,79.54
2022-07-28T02:04:08.787Z,79.57
2022-07-28T02:06:53.903Z,79.11
2022-07-28T02:09:48.093Z,78.55
2022-07-28T02:12:36.498Z,78.19
2022-07-28T02:15:30.938Z,78.27
2022-07-28T02:18:23.755Z,78.28
2022-07-28T02:21:16.237Z,78.54
2022-07-28T02:24:13.889Z,78.63
2022-07-28T02:27:03.205Z,78.66
2022-07-28T02:30:02.716Z,78.31
2022-07-28T02:32:58.065Z,78.06
2022-07-28T02:35:57.502Z,77.86
2022-07-28T02:38:52.775Z,77.90
2022-07-28T02:41:45.756Z,78.19
2022-07-28T02:44:43.773Z,78.32
2022-07-28T02:47:42.377Z,78.52
2022-07-28T02:50:34.679Z,78.47
2022-07-28T02:53:29.391Z,78.68
2022-07-28T02:56:23.134Z,78.89
2022-07-28T02:59:15.575Z,78.67
2022-07-28T03:02:08.677Z,78.46
2022-07-28T03:05:02.999Z,78.25
2022-07-28T03:07:59.919Z,77.89
2022-07-28T03:11:07.004Z,77.63
2022-07-28T03:13:59.109Z,77.88
2022-07-28T03:16:55.805Z,77.82
2022-07-28T03:19:51.085Z,77.75
2022-07-28T03:22:43.164Z,77.72
2022-07-28T03:25:45.251Z,77.89
2022-07-28T03:28:39.873Z,78.01
2022-07-28T03:31:33.047Z,77.88
2022-07-28T03:34:28.354Z,77.77
2022-07-28T03:37:26.955Z,77.78
2022-07-28T03:40:20.837Z,77.79
2022-07-28T03:43:14.198Z,77.66
2022-07-28T03:45:58.949Z,77.80
2022-07-28T03:48:51.115Z,77.84
2022-07-28T03:51:43.172Z,77.76
2022-07-28T03:54:36.256Z,77.13
2022-07-28T03:57:28.781Z,77.20
2022-07-28T04:00:22.160Z,77.02
2022-07-28T04:03:35.168Z,76.81
2022-07-28T04:06:26.392Z,76.48
2022-07-28T04:09:18.947Z,76.53
2022-07-28T04:12:11.615Z,76.32
2022-07-28T04:15:03.634Z,76.38
2022-07-28T04:17:56.753Z,76.32
2022-07-28T04:20:49.153Z,76.07
2022-07-28T04:23:41.572Z,75.85
2022-07-28T04:26:33.653Z,75.71
2022-07-28T04:29:27.340Z,75.77
2022-07-28T04:32:12.210Z,75.39
2022-07-28T04:35:04.300Z,75.18
2022-07-28T04:37:58.646Z,75.01
2022-07-28T04:40:39.720Z,74.84
2022-07-28T04:43:11.740Z,74.35
2022-07-28T04:46:02.584Z,74.41
2022-07-28T04:49:01.769Z,74.38
2022-07-28T04:51:53.793Z,74.21
2022-07-28T04:54:49.461Z,73.90
2022-07-28T04:57:41.456Z,73.86
2022-07-28T05:00:33.838Z,73.32
2022-07-28T05:03:25.858Z,73.06
2022-07-28T05:06:18.736Z,72.75
2022-07-28T05:09:10.858Z,72.84
2022-07-28T05:12:02.939Z,72.30
2022-07-28T05:14:54.987Z,72.55
2022-07-28T05:17:46.982Z,72.57
2022-07-28T05:20:37.573Z,72.32
2022-07-28T05:23:29.714Z,72.43
2022-07-28T05:26:22.060Z,72.38
2022-07-28T05:29:14.087Z,72.32
2022-07-28T05:32:17.448Z,71.96
2022-07-28T05:35:11.172Z,71.44
2022-07-28T05:38:06.388Z,71.48
2022-07-28T05:41:02.395Z,71.27
2022-07-28T05:43:54.372Z,70.77
2022-07-28T05:46:37.914Z,70.57
2022-07-28T05:49:19.858Z,70.70
2022-07-28T05:52:11.903Z,70.42
2022-07-28T05:55:03.927Z,70.20
2022-07-28T05:57:56.123Z,69.50
2022-07-28T06:00:49.245Z,70.14
2022-07-28T06:03:42.703Z,69.73
2022-07-28T06:06:34.769Z,69.76
2022-07-28T06:09:26.886Z,69.61
2022-07-28T06:12:12.186Z,69.88
2022-07-28T06:15:05.616Z,70.14
2022-07-28T06:17:53.309Z,70.45
2022-07-28T06:20:45.390Z,71.43
2022-07-28T06:23:37.550Z,71.42
2022-07-28T06:26:29.555Z,71.72
2022-07-28T06:29:16.209Z,71.90
2022-07-28T06:32:08.901Z,71.71
2022-07-28T06:35:01.229Z,71.68
2022-07-28T06:37:47.084Z,71.65
2022-07-28T06:40:29.144Z,71.11
2022-07-28T06:43:21.190Z,70.29
2022-07-28T06:46:18.683Z,70.07
2022-07-28T06:49:03.554Z,68.26
2022-07-28T06:51:55.634Z,68.09
2022-07-28T06:54:48.928Z,67.91
2022-07-28T06:57:41.110Z,67.54
2022-07-28T07:00:33.618Z,67.06
2022-07-28T07:03:25.712Z,66.50
2022-07-28T07:06:18.229Z,66.30
2022-07-28T07:09:10.440Z,65.81
2022-07-28T07:12:02.883Z,65.97
2022-07-28T07:14:55.170Z,64.77
2022-07-28T07:17:47.158Z,64.40
2022-07-28T07:20:39.177Z,64.88
2022-07-28T07:23:31.162Z,65.51
2022-07-28T07:26:15.801Z,65.14
2022-07-28T07:29:08.329Z,64.88
2022-07-28T07:31:59.597Z,65.34
2022-07-28T07:34:51.625Z,65.27
2022-07-28T07:37:43.660Z,65.38
2022-07-28T07:40:36.675Z,65.79
2022-07-28T07:43:28.961Z,65.77
2022-07-28T07:46:21.055Z,65.75
2022-07-28T07:49:13.164Z,65.40
2022-07-28T07:52:05.424Z,65.51
2022-07-28T07:54:59.180Z,65.28
2022-07-28T07:57:51.297Z,65.53
2022-07-28T08:00:43.368Z,65.37
2022-07-28T08:03:35.453Z,65.18
2022-07-28T08:06:28.846Z,65.64
2022-07-28T08:09:21.674Z,65.78
2022-07-28T08:12:13.666Z,65.21
2022-07-28T08:15:06.951Z,65.38
2022-07-28T08:17:59.065Z,65.44
2022-07-28T08:20:51.062Z,65.11
2022-07-28T08:23:43.123Z,64.55
2022-07-28T08:26:35.246Z,63.95
2022-07-28T08:29:20.179Z,63.99
2022-07-28T08:32:12.153Z,63.44
2022-07-28T08:35:30.405Z,62.85
2022-07-28T08:38:16.630Z,61.90
2022-07-28T08:41:00.348Z,60.67
2022-07-28T08:43:53.799Z,58.99
2022-07-28T08:46:48.540Z,59.06
2022-07-28T08:49:42.603Z,58.59
2022-07-28T08:52:35.783Z,57.57
2022-07-28T08:55:31.526Z,56.64
2022-07-28T08:58:24.771Z,56.89
2022-07-28T09:01:17.287Z,56.05
2022-07-28T09:03:50.000Z,56.25
2022-07-28T09:06:43.895Z,55.66
2022-07-28T09:09:36.000Z,55.07
2022-07-28T09:12:22.281Z,53.85
2022-07-28T09:15:04.425Z,53.54
2022-07-28T09:17:56.744Z,53.46
2022-07-28T09:20:48.852Z,53.82
2022-07-28T09:23:49.697Z,53.12
2022-07-28T09:27:02.689Z,52.45
2022-07-28T09:29:38.636Z,52.79
2022-07-28T09:32:31.483Z,52.85
2022-07-28T09:35:23.557Z,51.72
2022-07-28T09:38:16.195Z,51.82
2022-07-28T09:41:03.233Z,52.47
2022-07-28T09:43:56.107Z,52.21
2022-07-28T09:46:48.221Z,51.99
2022-07-28T09:49:45.281Z,52.17
2022-07-28T09:52:39.490Z,51.38
2022-07-28T09:55:35.462Z,51.73
2022-07-28T09:58:28.077Z,51.69
2022-07-28T10:01:21.164Z,51.84
2022-07-28T10:04:12.104Z,52.49
2022-07-28T10:07:11.548Z,51.94
2022-07-28T10:10:07.165Z,52.19
2022-07-28T10:13:07.276Z,52.92
2022-07-28T10:16:12.157Z,52.51
2022-07-28T10:19:06.581Z,52.11
2022-07-28T10:22:00.021Z,51.39
2022-07-28T10:24:55.053Z,51.86
2022-07-28T10:27:49.588Z,51.38
2022-07-28T10:30:42.750Z,51.35
2022-07-28T10:33:36.252Z,50.80
2022-07-28T10:36:28.885Z,49.75
2022-07-28T10:39:23.643Z,49.69
2022-07-28T10:42:12.443Z,50.52
2022-07-28T10:45:06.310Z,49.76
2022-07-28T10:48:00.755Z,50.76
2022-07-28T10:50:45.937Z,51.06
2022-07-28T10:53:47.101Z,50.82
2022-07-28T10:56:48.203Z,51.19
2022-07-28T10:59:58.331Z,51.16
2022-07-28T11:02:55.487Z,50.44
2022-07-28T11:05:48.100Z,49.94
2022-07-28T11:08:40.201Z,50.20
2022-07-28T11:11:50.104Z,50.83
2022-07-28T11:14:37.235Z,51.44
2022-07-28T11:17:33.503Z,51.51
2022-07-28T11:21:05.293Z,51.85
2022-07-28T11:24:00.275Z,51.17
2022-07-28T11:26:54.352Z,51.38
2022-07-28T11:29:48.877Z,50.59
2022-07-28T11:32:58.507Z,50.47
2022-07-28T11:35:58.947Z,50.31
2022-07-28T11:39:23.941Z,50.35
2022-07-28T11:42:31.009Z,50.89
2022-07-28T11:45:38.930Z,51.76
2022-07-28T11:48:33.070Z,51.32
2022-07-28T11:51:25.168Z,50.23
2022-07-28T11:54:18.416Z,50.01
2022-07-28T11:57:11.845Z,50.92
2022-07-28T12:00:08.205Z,50.58
2022-07-28T12:03:01.193Z,49.43
2022-07-28T12:06:00.539Z,49.36
2022-07-28T12:08:57.730Z,48.87
2022-07-28T12:11:54.237Z,48.36
2022-07-28T12:14:47.351Z,48.29
2022-07-28T12:17:40.574Z,48.85
2022-07-28T12:20:31.758Z,48.41
2022-07-28T12:23:38.629Z,49.04
2022-07-28T12:26:40.910Z,48.49
2022-07-28T12:29:36.099Z,47.48
2022-07-28T12:32:35.310Z,47.54
2022-07-28T12:35:28.144Z,47.02
2022-07-28T12:38:04.472Z,46.51
2022-07-28T12:40:57.036Z,46.51
2022-07-28T12:43:56.948Z,46.21
2022-07-28T12:46:50.055Z,46.46
2022-07-28T12:49:25.298Z,47.55
2022-07-28T12:52:22.433Z,47.11
2022-07-28T12:55:09.500Z,47.11
2022-07-28T12:58:02.235Z,46.66
2022-07-28T13:00:55.556Z,46.89
2022-07-28T13:03:53.801Z,46.56
2022-07-28T13:06:55.221Z,46.81
2022-07-28T13:09:59.974Z,46.97
2022-07-28T13:13:03.511Z,46.61
2022-07-28T13:16:13.113Z,46.30
2022-07-28T13:19:05.953Z,46.35
2022-07-28T13:22:04.081Z,46.67
2022-07-28T13:24:58.449Z,45.76
2022-07-28T13:27:54.917Z,45.60
2022-07-28T13:30:46.005Z,45.62
2022-07-28T13:33:38.002Z,44.83
2022-07-28T13:36:12.545Z,45.11
2022-07-28T13:39:05.529Z,45.18
2022-07-28T13:41:59.303Z,45.29
2022-07-28T13:44:52.539Z,45.02
2022-07-28T13:47:44.539Z,44.95
2022-07-28T13:50:29.529Z,43.98
2022-07-28T13:53:22.463Z,43.47
2022-07-28T13:56:14.719Z,43.81
2022-07-28T13:59:07.292Z,44.42
2022-07-28T14:02:01.451Z,44.88
2022-07-28T14:04:55.850Z,45.78
2022-07-28T14:07:49.312Z,46.48
2022-07-28T14:10:41.402Z,47.05
2022-07-28T14:13:40.144Z,47.67
2022-07-28T14:16:32.353Z,47.74
2022-07-28T14:19:37.863Z,48.20
2022-07-28T14:22:31.691Z,48.53
2022-07-28T14:25:23.877Z,48.09
2022-07-28T14:28:16.063Z,47.15
2022-07-28T14:31:08.475Z,46.71
2022-07-28T14:34:04.282Z,46.78
2022-07-28T14:36:56.553Z,45.92
2022-07-28T14:39:48.557Z,45.39
2022-07-28T14:42:40.635Z,44.92
2022-07-28T14:45:32.941Z,45.16
2022-07-28T14:48:45.307Z,45.67
2022-07-28T14:51:20.619Z,45.47
2022-07-28T14:54:13.858Z,45.62
2022-07-28T14:57:06.325Z,45.96
2022-07-28T14:59:40.745Z,45.98
2022-07-28T15:02:33.891Z,46.13
2022-07-28T15:05:26.217Z,46.99
2022-07-28T15:08:09.887Z,46.95
2022-07-28T15:11:00.474Z,47.34
2022-07-28T15:13:52.508Z,47.40
2022-07-28T15:16:45.363Z,47.59
2022-07-28T15:19:38.969Z,47.16
2022-07-28T15:22:21.969Z,47.14
2022-07-28T15:25:18.500Z,47.65
2022-07-28T15:28:10.684Z,48.38
2022-07-28T15:30:59.437Z,49.12
2022-07-28T15:33:57.587Z,48.67
2022-07-28T15:36:30.402Z,48.72
2022-07-28T15:39:23.634Z,49.11
2022-07-28T15:42:16.102Z,49.25
2022-07-28T15:45:10.008Z,49.48
2022-07-28T15:48:02.049Z,49.38
2022-07-28T15:50:54.171Z,48.77
2022-07-28T15:53:52.351Z,48.32
2022-07-28T15:56:44.402Z,47.87
2022-07-28T15:59:50.157Z,47.68
2022-07-28T16:02:42.956Z,47.91
2022-07-28T16:05:35.014Z,48.16
2022-07-28T16:08:27.164Z,48.00
2022-07-28T16:11:19.756Z,47.51
2022-07-28T16:14:11.949Z,47.39
2022-07-28T16:17:04.387Z,47.49
2022-07-28T16:19:48.485Z,47.90
2022-07-28T16:22:41.325Z,47.11
2022-07-28T16:25:34.804Z,46.19
2022-07-28T16:28:27.197Z,45.39
2022-07-28T16:31:19.271Z,44.59
2022-07-28T16:34:11.519Z,44.29
2022-07-28T16:37:05.608Z,43.59
2022-07-28T16:39:58.465Z,44.08
2022-07-28T16:42:52.268Z,43.62
2022-07-28T16:45:44.424Z,42.91
2022-07-28T16:48:36.436Z,42.67
2022-07-28T16:51:28.711Z,42.72
2022-07-28T16:54:20.947Z,42.31
2022-07-28T16:57:13.180Z,42.19
2022-07-28T17:00:05.794Z,42.04
2022-07-28T17:02:57.777Z,41.64
2022-07-28T17:05:49.882Z,41.53
2022-07-28T17:08:41.942Z,41.91
2022-07-28T17:11:33.952Z,42.27
2022-07-28T17:14:26.254Z,41.88
2022-07-28T17:17:18.329Z,41.98
2022-07-28T17:20:02.447Z,42.89
2022-07-28T17:22:54.922Z,43.74
2022-07-28T17:29:00.286Z,45.72
2022-07-28T17:31:52.397Z,46.75
2022-07-28T17:34:37.618Z,47.72
2022-07-28T17:37:29.735Z,48.50
2022-07-28T17:40:22.214Z,49.10
2022-07-28T17:43:20.363Z,50.03
2022-07-28T17:46:12.696Z,50.46
2022-07-28T17:49:05.721Z,51.26
2022-07-28T17:51:57.911Z,51.90
2022-07-28T17:55:07.785Z,52.58
2022-07-28T17:58:09.459Z,53.29
2022-07-28T18:01:10.060Z,53.85
2022-07-28T18:04:00.400Z,54.29
2022-07-28T18:06:52.995Z,54.92
2022-07-28T18:09:44.973Z,55.36
2022-07-28T18:12:37.078Z,55.80
2022-07-28T18:15:30.726Z,56.58
2022-07-28T18:18:23.083Z,57.49
2022-07-28T18:21:07.668Z,58.73
2022-07-28T18:23:59.636Z,59.42
2022-07-28T18:26:52.569Z,59.76
2022-07-28T18:29:44.547Z,59.85
2022-07-28T18:32:37.012Z,60.81
2022-07-28T18:35:32.262Z,61.72
2022-07-28T18:38:24.329Z,62.38
2022-07-28T18:41:19.116Z,62.84
2022-07-28T18:44:01.430Z,62.62
2022-07-28T18:46:53.562Z,63.59
2022-07-28T18:49:46.270Z,64.23
2022-07-28T18:52:40.811Z,64.70
2022-07-28T18:55:33.163Z,65.14
2022-07-28T18:58:25.284Z,65.70
2022-07-28T19:01:17.424Z,65.48
2022-07-28T19:04:08.065Z,66.33
2022-07-28T19:07:00.176Z,66.72
2022-07-28T19:09:52.214Z,67.02
2022-07-28T19:12:46.348Z,67.04
2022-07-28T19:15:38.374Z,67.22
2022-07-28T19:18:30.418Z,67.80
2022-07-28T19:21:22.548Z,68.47
2022-07-28T19:24:16.510Z,68.78
2022-07-28T19:27:08.980Z,68.92
2022-07-28T19:29:49.860Z,69.53
2022-07-28T19:32:42.641Z,70.02
2022-07-28T19:35:34.924Z,70.46
2022-07-28T19:38:26.989Z,70.69
2022-07-28T19:41:21.508Z,70.85
2022-07-28T19:44:13.809Z,71.01
2022-07-28T19:47:06.335Z,70.97
2022-07-28T19:49:58.400Z,71.03
2022-07-28T19:52:50.524Z,71.01
2022-07-28T19:55:50.756Z,70.61
2022-07-28T19:58:44.176Z,71.27
2022-07-28T20:01:36.265Z,71.32
2022-07-28T20:04:38.889Z,71.22
2022-07-28T20:07:31.991Z,71.10
2022-07-28T20:10:25.434Z,71.07
2022-07-28T20:13:17.440Z,71.38
2022-07-28T20:16:09.742Z,71.33
2022-07-28T20:18:54.459Z,71.31
2022-07-28T20:21:26.716Z,71.08
2022-07-28T20:24:19.942Z,71.34
2022-07-28T20:27:12.046Z,71.20
2022-07-28T20:30:04.217Z,71.15
2022-07-28T20:32:58.131Z,70.85
2022-07-28T20:35:30.223Z,71.15
2022-07-28T20:38:23.421Z,71.05
2022-07-28T20:41:08.385Z,70.18
2022-07-28T20:44:27.477Z,69.79
2022-07-28T20:47:12.496Z,69.40
2022-07-28T20:50:05.329Z,69.48
2022-07-28T20:52:57.475Z,69.26
2022-07-28T20:55:49.646Z,69.35
2022-07-28T20:58:42.037Z,69.69
2022-07-28T21:01:34.162Z,69.91
2022-07-28T21:04:27.498Z,70.31
2022-07-28T21:08:00.200Z,70.41
2022-07-28T21:10:33.043Z,70.39
2022-07-28T21:13:25.222Z,70.15
2022-07-28T21:16:17.906Z,70.16
2022-07-28T21:18:50.183Z,69.50
2022-07-28T21:21:42.229Z,69.34
2022-07-28T21:24:34.386Z,69.04
2022-07-28T21:27:26.673Z,69.01
2022-07-28T21:30:18.637Z,68.97
2022-07-28T21:33:11.049Z,69.05
2022-07-28T21:35:53.109Z,68.88
2022-07-28T21:38:45.567Z,68.71
2022-07-28T21:41:40.099Z,68.51
2022-07-28T21:44:25.751Z,68.27
2022-07-28T21:47:17.926Z,68.02
2022-07-28T21:49:50.033Z,68.22
2022-07-28T21:52:42.498Z,68.62
2022-07-28T21:55:34.539Z,68.82
2022-07-28T21:58:26.772Z,68.91
2022-07-28T22:01:18.872Z,69.26
2022-07-28T22:04:10.993Z,69.32
2022-07-28T22:07:03.052Z,69.17
2022-07-28T22:09:58.201Z,69.37
2022-07-28T22:12:51.153Z,69.40
2022-07-28T22:15:43.344Z,69.55
2022-07-28T22:18:35.422Z,69.74
2022-07-28T22:21:27.338Z,69.98
2022-07-28T22:24:19.528Z,70.18
2022-07-28T22:27:11.653Z,69.97
2022-07-28T22:30:04.560Z,70.16
2022-07-28T22:32:56.686Z,70.56
2022-07-28T22:35:31.480Z,70.83
2022-07-28T22:38:23.637Z,70.87
2022-07-28T22:41:15.888Z,70.76
2022-07-28T22:44:08.650Z,70.91
2022-07-28T22:47:00.812Z,70.90
2022-07-28T22:49:55.856Z,70.75
2022-07-28T22:52:48.289Z,71.19
2022-07-28T22:58:49.885Z,71.67
2022-07-28T23:01:42.198Z,72.16
2022-07-28T23:04:35.558Z,72.12
2022-07-28T23:07:52.986Z,72.50
2022-07-28T23:10:40.568Z,72.59
2022-07-28T23:13:25.193Z,72.39
2022-07-28T23:16:19.748Z,72.69
2022-07-28T23:19:12.210Z,73.02
2022-07-28T23:22:06.653Z,72.96
2022-07-28T23:24:58.975Z,72.97
2022-07-28T23:27:51.876Z,72.70
2022-07-28T23:30:45.565Z,72.98
2022-07-28T23:33:55.498Z,73.32
2022-07-28T23:36:49.771Z,73.66
2022-07-28T23:39:41.962Z,73.98
2022-07-28T23:42:34.642Z,74.23
2022-07-28T23:45:27.316Z,73.93
2022-07-28T23:48:19.794Z,74.02
2022-07-28T23:51:14.094Z,74.07
2022-07-28T23:54:06.345Z,74.14
2022-07-28T23:56:59.429Z,74.43
2022-07-28T23:59:54.027Z,74.38
